sensor_id;sensor_type;location;lat;lon;timestamp;pressure;altitude;pressure_sealevel;temperature;humidity
58979;BME280;44763;50.464;30.612;2022-09-13T00:01:35;99432.73;;;12.71;100.00
58979;BME280;44763;50.464;30.612;2022-09-13T00:04:01;99425.52;;;12.71;100.00
58979;BME280;44763;50.464;30.612;2022-09-13T00:06:29;99423.69;;;12.72;100.00
58979;BME280;44763;50.464;30.612;2022-09-13T00:08:55;99421.52;;;12.71;100.00
58979;BME280;44763;50.464;30.612;2022-09-13T00:11:25;99423.69;;;12.72;100.00
58979;BME280;44763;50.464;30.612;2022-09-13T00:13:55;99418.62;;;12.73;100.00
58979;BME280;44763;50.464;30.612;2022-09-13T00:16:24;99418.62;;;12.73;100.00
58979;BME280;44763;50.464;30.612;2022-09-13T00:18:53;99418.19;;;12.76;100.00
58979;BME280;44763;50.464;30.612;2022-09-13T00:21:22;99413.86;;;12.75;100.00
58979;BME280;44763;50.464;30.612;2022-09-13T00:23:51;99417.71;;;12.79;100.00
58979;BME280;44763;50.464;30.612;2022-09-13T00:26:23;99417.27;;;12.82;100.00
58979;BME280;44763;50.464;30.612;2022-09-13T00:28:52;99413.27;;;12.82;100.00
58979;BME280;44763;50.464;30.612;2022-09-13T00:31:21;99413.20;;;12.79;100.00
58979;BME280;44763;50.464;30.612;2022-09-13T00:33:49;99412.30;;;12.76;100.00
58979;BME280;44763;50.464;30.612;2022-09-13T00:36:16;99416.16;;;12.71;100.00
58979;BME280;44763;50.464;30.612;2022-09-13T00:38:43;99421.23;;;12.70;100.00
58979;BME280;44763;50.464;30.612;2022-09-13T00:41:12;99423.09;;;12.70;100.00
58979;BME280;44763;50.464;30.612;2022-09-13T00:43:46;99419.09;;;12.70;100.00
58979;BME280;44763;50.464;30.612;2022-09-13T00:46:26;99426.86;;;12.71;100.00
58979;BME280;44763;50.464;30.612;2022-09-13T00:51:48;99424.06;;;12.66;100.00
58979;BME280;44763;50.464;30.612;2022-09-13T00:54:17;99423.23;;;12.65;100.00
58979;BME280;44763;50.464;30.612;2022-09-13T00:56:49;99421.61;;;12.64;100.00
58979;BME280;44763;50.464;30.612;2022-09-13T00:59:23;99416.27;;;12.64;100.00
58979;BME280;44763;50.464;30.612;2022-09-13T01:01:54;99413.28;;;12.63;100.00
58979;BME280;44763;50.464;30.612;2022-09-13T01:04:23;99409.27;;;12.63;100.00
58979;BME280;44763;50.464;30.612;2022-09-13T01:06:55;99417.51;;;12.62;100.00
58979;BME280;44763;50.464;30.612;2022-09-13T01:09:22;99413.22;;;12.61;100.00
58979;BME280;44763;50.464;30.612;2022-09-13T01:11:52;99409.15;;;12.58;100.00
58979;BME280;44763;50.464;30.612;2022-09-13T01:14:32;99414.72;;;12.57;100.00
58979;BME280;44763;50.464;30.612;2022-09-13T01:16:59;99413.38;;;12.57;100.00
58979;BME280;44763;50.464;30.612;2022-09-13T01:19:26;99405.05;;;12.56;100.00
58979;BME280;44763;50.464;30.612;2022-09-13T01:22:05;99410.17;;;12.57;100.00
58979;BME280;44763;50.464;30.612;2022-09-13T01:25:04;99414.93;;;12.55;100.00
58979;BME280;44763;50.464;30.612;2022-09-13T01:30:58;99412.26;;;12.55;100.00
58979;BME280;44763;50.464;30.612;2022-09-13T01:36:47;99410.39;;;12.56;100.00
58979;BME280;44763;50.464;30.612;2022-09-13T01:45:15;99411.45;;;12.64;100.00
58979;BME280;44763;50.464;30.612;2022-09-13T01:48:03;99405.57;;;12.64;100.00
58979;BME280;44763;50.464;30.612;2022-09-13T01:50:38;99409.58;;;12.64;100.00
58979;BME280;44763;50.464;30.612;2022-09-13T01:53:19;99412.25;;;12.64;100.00
58979;BME280;44763;50.464;30.612;2022-09-13T01:55:56;99409.27;;;12.63;100.00
58979;BME280;44763;50.464;30.612;2022-09-13T01:58:36;99413.22;;;12.61;100.00
58979;BME280;44763;50.464;30.612;2022-09-13T02:01:17;99416.92;;;12.60;100.00
58979;BME280;44763;50.464;30.612;2022-09-13T02:04:07;99408.90;;;12.60;100.00
58979;BME280;44763;50.464;30.612;2022-09-13T02:06:49;99411.08;;;12.60;100.00
58979;BME280;44763;50.464;30.612;2022-09-13T02:09:21;99415.30;;;12.59;100.00
58979;BME280;44763;50.464;30.612;2022-09-13T02:11:55;99416.86;;;12.57;100.00
58979;BME280;44763;50.464;30.612;2022-09-13T02:14:27;99413.87;;;12.56;100.00
58979;BME280;44763;50.464;30.612;2022-09-13T02:19:46;99414.50;;;12.58;100.00
58979;BME280;44763;50.464;30.612;2022-09-13T02:22:17;99413.59;;;12.55;100.00
58979;BME280;44763;50.464;30.612;2022-09-13T02:24:47;99411.67;;;12.53;100.00
58979;BME280;44763;50.464;30.612;2022-09-13T02:27:19;99411.36;;;12.52;100.00
58979;BME280;44763;50.464;30.612;2022-09-13T02:29:50;99415.37;;;12.52;100.00
58979;BME280;44763;50.464;30.612;2022-09-13T02:32:30;99415.67;;;12.53;100.00
58979;BME280;44763;50.464;30.612;2022-09-13T02:35:07;99412.69;;;12.52;100.00
58979;BME280;44763;50.464;30.612;2022-09-13T02:37:39;99410.77;;;12.50;100.00
58979;BME280;44763;50.464;30.612;2022-09-13T02:40:12;99410.98;;;12.49;100.00
58979;BME280;44763;50.464;30.612;2022-09-13T02:42:42;99410.77;;;12.50;100.00
58979;BME280;44763;50.464;30.612;2022-09-13T02:45:16;99411.30;;;12.50;100.00
58979;BME280;44763;50.464;30.612;2022-09-13T02:47:56;99412.91;;;12.51;100.00
58979;BME280;44763;50.464;30.612;2022-09-13T02:50:48;99404.39;;;12.51;100.00
58979;BME280;44763;50.464;30.612;2022-09-13T02:53:33;99402.16;;;12.48;100.00
58979;BME280;44763;50.464;30.612;2022-09-13T02:59:18;99404.92;;;12.41;100.00
58979;BME280;44763;50.464;30.612;2022-09-13T03:01:57;99399.86;;;12.42;100.00
58979;BME280;44763;50.464;30.612;2022-09-13T03:04:29;99402.47;;;12.40;100.00
58979;BME280;44763;50.464;30.612;2022-09-13T03:06:55;99398.95;;;12.39;100.00
58979;BME280;44763;50.464;30.612;2022-09-13T03:09:21;99394.95;;;12.39;100.00
58979;BME280;44763;50.464;30.612;2022-09-13T03:12:06;99397.63;;;12.39;100.00
58979;BME280;44763;50.464;30.612;2022-09-13T03:14:45;99396.91;;;12.41;100.00
58979;BME280;44763;50.464;30.612;2022-09-13T03:17:54;99401.13;;;12.40;100.00
58979;BME280;44763;50.464;30.612;2022-09-13T03:20:52;99408.56;;;12.38;100.00
58979;BME280;44763;50.464;30.612;2022-09-13T03:29:23;99417.81;;;12.35;100.00
58979;BME280;44763;50.464;30.612;2022-09-13T03:32:19;99415.98;;;12.36;100.00
58979;BME280;44763;50.464;30.612;2022-09-13T03:38:11;99415.36;;;12.34;100.00
58979;BME280;44763;50.464;30.612;2022-09-13T03:40:20;99414.27;;;12.32;100.00
58979;BME280;44763;50.464;30.612;2022-09-13T03:43:06;99414.17;;;12.30;100.00
58979;BME280;44763;50.464;30.612;2022-09-13T03:45:37;99416.26;;;12.27;100.00
58979;BME280;44763;50.464;30.612;2022-09-13T03:48:06;99415.14;;;12.26;100.00
58979;BME280;44763;50.464;30.612;2022-09-13T03:50:35;99415.14;;;12.26;100.00
58979;BME280;44763;50.464;30.612;2022-09-13T03:53:06;99413.14;;;12.21;100.00
58979;BME280;44763;50.464;30.612;2022-09-13T03:55:41;99424.41;;;12.14;100.00
58979;BME280;44763;50.464;30.612;2022-09-13T03:58:12;99419.81;;;12.12;100.00
58979;BME280;44763;50.464;30.612;2022-09-13T04:00:41;99424.88;;;12.11;100.00
58979;BME280;44763;50.464;30.612;2022-09-13T04:03:07;99425.16;;;12.12;100.00
58979;BME280;44763;50.464;30.612;2022-09-13T04:05:35;99425.75;;;12.14;100.00
58979;BME280;44763;50.464;30.612;2022-09-13T04:08:03;99426.56;;;12.15;100.00
58979;BME280;44763;50.464;30.612;2022-09-13T04:10:35;99431.09;;;12.14;100.00
58979;BME280;44763;50.464;30.612;2022-09-13T04:13:02;99426.80;;;12.13;100.00
58979;BME280;44763;50.464;30.612;2022-09-13T04:15:30;99430.81;;;12.13;100.00
58979;BME280;44763;50.464;30.612;2022-09-13T04:17:57;99428.73;;;12.15;100.00
58979;BME280;44763;50.464;30.612;2022-09-13T04:20:23;99427.98;;;12.17;100.00
58979;BME280;44763;50.464;30.612;2022-09-13T04:22:52;99434.67;;;12.17;100.00
58979;BME280;44763;50.464;30.612;2022-09-13T04:25:19;99428.42;;;12.14;100.00
58979;BME280;44763;50.464;30.612;2022-09-13T04:27:48;99432.89;;;12.11;100.00
58979;BME280;44763;50.464;30.612;2022-09-13T04:30:16;99429.52;;;12.06;100.00
58979;BME280;44763;50.464;30.612;2022-09-13T04:32:42;99438.66;;;12.08;100.00
58979;BME280;44763;50.464;30.612;2022-09-13T04:36:11;99432.36;;;12.12;100.00
58979;BME280;44763;50.464;30.612;2022-09-13T04:38:37;99438.28;;;12.04;100.00
58979;BME280;44763;50.464;30.612;2022-09-13T04:41:04;99440.05;;;12.01;100.00
58979;BME280;44763;50.464;30.612;2022-09-13T04:43:31;99438.33;;;11.98;100.00
58979;BME280;44763;50.464;30.612;2022-09-13T04:45:59;99438.33;;;11.98;100.00
58979;BME280;44763;50.464;30.612;2022-09-13T04:48:26;99437.52;;;11.97;100.00
58979;BME280;44763;50.464;30.612;2022-09-13T04:50:52;99441.00;;;11.98;100.00
58979;BME280;44763;50.464;30.612;2022-09-13T04:53:18;99443.45;;;11.99;100.00
58979;BME280;44763;50.464;30.612;2022-09-13T04:55:44;99441.62;;;12.00;100.00
58979;BME280;44763;50.464;30.612;2022-09-13T04:58:10;99436.54;;;11.92;100.00
58979;BME280;44763;50.464;30.612;2022-09-13T05:00:37;99445.45;;;11.95;100.00
58979;BME280;44763;50.464;30.612;2022-09-13T05:03:03;99446.80;;;11.95;100.00
58979;BME280;44763;50.464;30.612;2022-09-13T05:05:29;99440.12;;;11.95;100.00
58979;BME280;44763;50.464;30.612;2022-09-13T05:07:58;99449.89;;;11.92;100.00
58979;BME280;44763;50.464;30.612;2022-09-13T05:10:24;99449.80;;;11.89;100.00
58979;BME280;44763;50.464;30.612;2022-09-13T05:12:52;99449.69;;;11.86;100.00
58979;BME280;44763;50.464;30.612;2022-09-13T05:15:18;99453.09;;;11.84;100.00
58979;BME280;44763;50.464;30.612;2022-09-13T05:17:44;99453.23;;;11.80;100.00
58979;BME280;44763;50.464;30.612;2022-09-13T05:20:10;99453.98;;;11.78;100.00
58979;BME280;44763;50.464;30.612;2022-09-13T05:22:36;99452.36;;;11.77;100.00
58979;BME280;44763;50.464;30.612;2022-09-13T05:25:03;99454.72;;;11.76;100.00
58979;BME280;44763;50.464;30.612;2022-09-13T05:27:30;99456.58;;;11.76;100.00
58979;BME280;44763;50.464;30.612;2022-09-13T05:29:56;99454.86;;;11.72;100.00
58979;BME280;44763;50.464;30.612;2022-09-13T05:32:21;99458.76;;;11.69;100.00
58979;BME280;44763;50.464;30.612;2022-09-13T05:34:47;99457.56;;;11.65;100.00
58979;BME280;44763;50.464;30.612;2022-09-13T05:37:14;99452.67;;;11.62;100.00
58979;BME280;44763;50.464;30.612;2022-09-13T05:39:40;99457.17;;;11.62;100.00
58979;BME280;44763;50.464;30.612;2022-09-13T05:42:06;99460.97;;;11.63;100.00
58979;BME280;44763;50.464;30.612;2022-09-13T05:44:33;99464.69;;;11.62;100.00
58979;BME280;44763;50.464;30.612;2022-09-13T05:46:59;99465.92;;;11.60;100.00
58979;BME280;44763;50.464;30.612;2022-09-13T05:49:25;99469.92;;;11.60;100.00
58979;BME280;44763;50.464;30.612;2022-09-13T05:51:52;99479.05;;;11.61;100.00
58979;BME280;44763;50.464;30.612;2022-09-13T05:54:18;99484.18;;;11.63;100.00
58979;BME280;44763;50.464;30.612;2022-09-13T05:56:45;99478.84;;;11.63;100.00
58979;BME280;44763;50.464;30.612;2022-09-13T05:59:11;99482.53;;;11.62;100.00
58979;BME280;44763;50.464;30.612;2022-09-13T06:01:39;99480.78;;;11.65;100.00
58979;BME280;44763;50.464;30.612;2022-09-13T06:04:06;99481.72;;;11.61;100.00
58979;BME280;44763;50.464;30.612;2022-09-13T06:06:33;99490.08;;;11.56;100.00
58979;BME280;44763;50.464;30.612;2022-09-13T06:09:00;99492.88;;;11.52;100.00
58979;BME280;44763;50.464;30.612;2022-09-13T06:11:26;99498.34;;;11.47;100.00
58979;BME280;44763;50.464;30.612;2022-09-13T06:13:53;99496.41;;;11.45;100.00
58979;BME280;44763;50.464;30.612;2022-09-13T06:16:19;99496.91;;;11.45;100.00
58979;BME280;44763;50.464;30.612;2022-09-13T06:18:46;99495.08;;;11.45;100.00
58979;BME280;44763;50.464;30.612;2022-09-13T06:21:16;99497.22;;;11.46;100.00
58979;BME280;44763;50.464;30.612;2022-09-13T06:23:46;99502.03;;;11.46;100.00
58979;BME280;44763;50.464;30.612;2022-09-13T06:26:15;99500.10;;;11.44;100.00
58979;BME280;44763;50.464;30.612;2022-09-13T06:28:48;99500.31;;;11.43;100.00
58979;BME280;44763;50.464;30.612;2022-09-13T06:31:16;99507.38;;;11.46;100.00
58979;BME280;44763;50.464;30.612;2022-09-13T06:33:44;99507.24;;;11.50;100.00
58979;BME280;44763;50.464;30.612;2022-09-13T06:36:13;99511.14;;;11.55;100.00
58979;BME280;44763;50.464;30.612;2022-09-13T06:38:46;99507.50;;;11.58;100.00
58979;BME280;44763;50.464;30.612;2022-09-13T06:41:18;99504.94;;;11.61;100.00
58979;BME280;44763;50.464;30.612;2022-09-13T06:43:47;99508.63;;;11.60;100.00
58979;BME280;44763;50.464;30.612;2022-09-13T06:46:23;99507.39;;;11.62;100.00
58979;BME280;44763;50.464;30.612;2022-09-13T06:48:50;99507.78;;;11.66;100.00
58979;BME280;44763;50.464;30.612;2022-09-13T06:51:19;99509.61;;;11.65;100.00
58979;BME280;44763;50.464;30.612;2022-09-13T06:53:48;99506.14;;;11.65;100.00
58979;BME280;44763;50.464;30.612;2022-09-13T06:56:25;99508.88;;;11.67;100.00
58979;BME280;44763;50.464;30.612;2022-09-13T06:58:59;99504.98;;;11.70;100.00
58979;BME280;44763;50.464;30.612;2022-09-13T07:01:33;99511.80;;;11.75;100.00
58979;BME280;44763;50.464;30.612;2022-09-13T07:04:06;99513.77;;;11.77;100.00
58979;BME280;44763;50.464;30.612;2022-09-13T07:06:41;99511.45;;;11.81;100.00
58979;BME280;44763;50.464;30.612;2022-09-13T07:09:07;99519.56;;;11.83;100.00
58979;BME280;44763;50.464;30.612;2022-09-13T07:11:37;99518.30;;;11.86;100.00
58979;BME280;44763;50.464;30.612;2022-09-13T07:14:05;99522.73;;;11.90;100.00
58979;BME280;44763;50.464;30.612;2022-09-13T07:16:35;99525.40;;;11.90;100.00
58979;BME280;44763;50.464;30.612;2022-09-13T07:19:05;99527.34;;;11.92;100.00
58979;BME280;44763;50.464;30.612;2022-09-13T07:21:34;99529.20;;;11.91;100.00
58979;BME280;44763;50.464;30.612;2022-09-13T07:24:00;99527.05;;;11.91;100.00
58979;BME280;44763;50.464;30.612;2022-09-13T07:26:27;99536.40;;;11.91;100.00
58979;BME280;44763;50.464;30.612;2022-09-13T07:28:56;99535.77;;;11.88;100.00
58979;BME280;44763;50.464;30.612;2022-09-13T07:31:32;99531.77;;;11.88;100.00
58979;BME280;44763;50.464;30.612;2022-09-13T07:33:59;99537.73;;;11.91;100.00
58979;BME280;44763;50.464;30.612;2022-09-13T07:36:29;99535.66;;;11.93;100.00
58979;BME280;44763;50.464;30.612;2022-09-13T07:38:56;99530.61;;;11.94;100.00
58979;BME280;44763;50.464;30.612;2022-09-13T07:41:26;99533.66;;;11.97;100.00
58979;BME280;44763;50.464;30.612;2022-09-13T07:43:53;99532.64;;;11.98;100.00
58979;BME280;44763;50.464;30.612;2022-09-13T07:46:26;99529.58;;;11.95;100.00
58979;BME280;44763;50.464;30.612;2022-09-13T07:48:55;99531.94;;;11.94;100.00
58979;BME280;44763;50.464;30.612;2022-09-13T07:51:24;99521.05;;;11.95;100.00
58979;BME280;44763;50.464;30.612;2022-09-13T07:53:55;99519.19;;;11.96;100.00
58979;BME280;44763;50.464;30.612;2022-09-13T07:56:29;99525.86;;;11.96;100.00
58979;BME280;44763;50.464;30.612;2022-09-13T07:58:54;99516.97;;;11.93;100.00
58979;BME280;44763;50.464;30.612;2022-09-13T08:01:23;99519.11;;;11.93;100.00
58979;BME280;44763;50.464;30.612;2022-09-13T08:03:56;99525.65;;;11.97;100.00
58979;BME280;44763;50.464;30.612;2022-09-13T08:06:25;99516.41;;;12.00;100.00
58979;BME280;44763;50.464;30.612;2022-09-13T08:08:52;99528.42;;;12.00;100.00
58979;BME280;44763;50.464;30.612;2022-09-13T08:11:24;99518.02;;;12.01;100.00
58979;BME280;44763;50.464;30.612;2022-09-13T08:14:00;99522.03;;;12.01;100.00
58979;BME280;44763;50.464;30.612;2022-09-13T08:16:27;99517.88;;;12.05;100.00
58979;BME280;44763;50.464;30.612;2022-09-13T08:18:57;99519.60;;;12.08;100.00
58979;BME280;44763;50.464;30.612;2022-09-13T08:21:25;99518.27;;;12.08;100.00
58979;BME280;44763;50.464;30.612;2022-09-13T08:23:55;99517.45;;;12.08;100.00
58979;BME280;44763;50.464;30.612;2022-09-13T08:26:24;99521.61;;;12.04;100.00
58979;BME280;44763;50.464;30.612;2022-09-13T08:28:56;99517.00;;;12.02;100.00
58979;BME280;44763;50.464;30.612;2022-09-13T08:31:20;99520.41;;;12.00;100.00
58979;BME280;44763;50.464;30.612;2022-09-13T08:33:47;99516.90;;;11.99;100.00
58979;BME280;44763;50.464;30.612;2022-09-13T08:36:14;99515.35;;;12.01;100.00
58979;BME280;44763;50.464;30.612;2022-09-13T08:38:55;99510.70;;;12.05;100.00
58979;BME280;44763;50.464;30.612;2022-09-13T08:46:58;99511.38;;;12.10;100.00
58979;BME280;44763;50.464;30.612;2022-09-13T08:49:41;99513.09;;;12.14;100.00
58979;BME280;44763;50.464;30.612;2022-09-13T08:52:28;99515.84;;;12.16;100.00
58979;BME280;44763;50.464;30.612;2022-09-13T08:55:03;99507.61;;;12.18;100.00
58979;BME280;44763;50.464;30.612;2022-09-13T08:57:36;99503.45;;;12.22;100.00
58979;BME280;44763;50.464;30.612;2022-09-13T09:03:11;99500.28;;;12.32;100.00
58979;BME280;44763;50.464;30.612;2022-09-13T09:05:55;99501.19;;;12.35;100.00
58979;BME280;44763;50.464;30.612;2022-09-13T09:08:26;99493.23;;;12.37;100.00
58979;BME280;44763;50.464;30.612;2022-09-13T09:10:58;99486.48;;;12.35;100.00
58979;BME280;44763;50.464;30.612;2022-09-13T09:13:40;99492.51;;;12.30;100.00
58979;BME280;44763;50.464;30.612;2022-09-13T09:16:31;99496.80;;;12.31;100.00
58979;BME280;44763;50.464;30.612;2022-09-13T09:21:52;99479.95;;;12.31;100.00
58979;BME280;44763;50.464;30.612;2022-09-13T09:24:23;99492.73;;;12.38;100.00
58979;BME280;44763;50.464;30.612;2022-09-13T09:26:56;99500.16;;;12.36;100.00
58979;BME280;44763;50.464;30.612;2022-09-13T09:29:28;99490.19;;;12.34;100.00
58979;BME280;44763;50.464;30.612;2022-09-13T09:37:24;99494.57;;;12.37;100.00
58979;BME280;44763;50.464;30.612;2022-09-13T09:39:52;99493.98;;;12.35;100.00
58979;BME280;44763;50.464;30.612;2022-09-13T09:42:26;99499.54;;;12.34;98.66
58979;BME280;44763;50.464;30.612;2022-09-13T09:44:57;99498.87;;;12.29;99.05
58979;BME280;44763;50.464;30.612;2022-09-13T09:47:43;99499.90;;;12.28;99.43
58979;BME280;44763;50.464;30.612;2022-09-13T09:50:13;99498.87;;;12.29;99.44
58979;BME280;44763;50.464;30.612;2022-09-13T09:53:02;99497.97;;;12.26;98.70
58979;BME280;44763;50.464;30.612;2022-09-13T09:58:42;99498.21;;;12.24;99.16
58979;BME280;44763;50.464;30.612;2022-09-13T10:06:41;99504.38;;;12.09;97.06
58979;BME280;44763;50.464;30.612;2022-09-13T10:11:52;99506.53;;;12.00;96.38
58979;BME280;44763;50.464;30.612;2022-09-13T10:19:54;99499.39;;;12.03;97.03
58979;BME280;44763;50.464;30.612;2022-09-13T10:22:29;99507.41;;;12.03;96.82
58979;BME280;44763;50.464;30.612;2022-09-13T10:26:06;99504.63;;;12.07;96.72
58979;BME280;44763;50.464;30.612;2022-09-13T10:27:51;99506.10;;;12.13;96.19
58979;BME280;44763;50.464;30.612;2022-09-13T10:33:31;99512.52;;;12.21;95.92
58979;BME280;44763;50.464;30.612;2022-09-13T10:36:07;99511.47;;;12.22;95.22
58979;BME280;44763;50.464;30.612;2022-09-13T10:38:40;99510.38;;;12.30;95.62
58979;BME280;44763;50.464;30.612;2022-09-13T10:41:10;99513.00;;;12.36;95.84
58979;BME280;44763;50.464;30.612;2022-09-13T10:43:41;99508.63;;;12.42;95.57
58979;BME280;44763;50.464;30.612;2022-09-13T10:46:10;99513.30;;;12.46;95.06
58979;BME280;44763;50.464;30.612;2022-09-13T10:48:46;99506.78;;;12.52;94.64
58979;BME280;44763;50.464;30.612;2022-09-13T10:54:19;99506.41;;;12.57;92.29
58979;BME280;44763;50.464;30.612;2022-09-13T10:56:50;99507.75;;;12.57;92.01
58979;BME280;44763;50.464;30.612;2022-09-13T10:59:26;99505.14;;;12.60;91.56
58979;BME280;44763;50.464;30.612;2022-09-13T11:11:06;99507.00;;;12.59;93.09
58979;BME280;44763;50.464;30.612;2022-09-13T11:17:07;99506.63;;;12.56;91.99
58979;BME280;44763;50.464;30.612;2022-09-13T11:23:00;99514.14;;;12.47;93.54
58979;BME280;44763;50.464;30.612;2022-09-13T11:28:44;99509.50;;;12.45;94.28
58979;BME280;44763;50.464;30.612;2022-09-13T11:40:33;99503.30;;;12.51;95.55
58979;BME280;44763;50.464;30.612;2022-09-13T11:57:08;99508.91;;;12.43;97.97
58979;BME280;44763;50.464;30.612;2022-09-13T11:59:46;99508.77;;;12.38;98.54
58979;BME280;44763;50.464;30.612;2022-09-13T12:05:15;99505.27;;;12.37;99.34
58979;BME280;44763;50.464;30.612;2022-09-13T12:08:13;99511.73;;;12.39;99.91
58979;BME280;44763;50.464;30.612;2022-09-13T12:10:53;99516.11;;;12.42;99.57
58979;BME280;44763;50.464;30.612;2022-09-13T12:13:28;99510.70;;;12.40;98.76
58979;BME280;44763;50.464;30.612;2022-09-13T12:16:01;99514.13;;;12.38;98.88
58979;BME280;44763;50.464;30.612;2022-09-13T12:21:16;99514.23;;;12.34;98.62
58979;BME280;44763;50.464;30.612;2022-09-13T12:23:49;99524.11;;;12.33;99.04
58979;BME280;44763;50.464;30.612;2022-09-13T12:26:28;99522.25;;;12.34;99.35
58979;BME280;44763;50.464;30.612;2022-09-13T12:28:58;99522.35;;;12.36;99.39
58979;BME280;44763;50.464;30.612;2022-09-13T12:31:29;99519.16;;;12.37;99.21
58979;BME280;44763;50.464;30.612;2022-09-13T12:33:57;99518.55;;;12.35;98.88
58979;BME280;44763;50.464;30.612;2022-09-13T12:54:14;99525.02;;;12.02;100.00
58979;BME280;44763;50.464;30.612;2022-09-13T12:57:15;99517.64;;;11.97;100.00
58979;BME280;44763;50.464;30.612;2022-09-13T13:08:18;99531.97;;;11.87;100.00
58979;BME280;44763;50.464;30.612;2022-09-13T13:11:00;99534.05;;;11.85;100.00
58979;BME280;44763;50.464;30.612;2022-09-13T13:13:36;99536.33;;;11.81;100.00
58979;BME280;44763;50.464;30.612;2022-09-13T13:16:25;99538.16;;;11.81;100.00
58979;BME280;44763;50.464;30.612;2022-09-13T13:18:51;99539.83;;;11.75;100.00
58979;BME280;44763;50.464;30.612;2022-09-13T13:26:55;99539.37;;;11.69;100.00
58979;BME280;44763;50.464;30.612;2022-09-13T13:29:30;99535.36;;;11.69;100.00
58979;BME280;44763;50.464;30.612;2022-09-13T13:39:46;99534.16;;;11.65;100.00
58979;BME280;44763;50.464;30.612;2022-09-13T13:42:27;99531.62;;;11.61;100.00
58979;BME280;44763;50.464;30.612;2022-09-13T13:50:15;99537.17;;;11.59;100.00
58979;BME280;44763;50.464;30.612;2022-09-13T13:52:51;99532.05;;;11.58;100.00
58979;BME280;44763;50.464;30.612;2022-09-13T13:55:42;99531.58;;;11.52;100.00
58979;BME280;44763;50.464;30.612;2022-09-13T13:58:36;99529.64;;;11.49;100.00
58979;BME280;44763;50.464;30.612;2022-09-13T14:01:00;99533.12;;;11.50;100.00
58979;BME280;44763;50.464;30.612;2022-09-13T14:09:50;99539.58;;;11.52;100.00
58979;BME280;44763;50.464;30.612;2022-09-13T14:18:12;99543.27;;;11.50;100.00
58979;BME280;44763;50.464;30.612;2022-09-13T14:20:59;99544.50;;;11.55;100.00
58979;BME280;44763;50.464;30.612;2022-09-13T14:23:28;99542.64;;;11.55;100.00
58979;BME280;44763;50.464;30.612;2022-09-13T14:25:57;99543.45;;;11.56;100.00
58979;BME280;44763;50.464;30.612;2022-09-13T14:28:25;99540.27;;;11.56;100.00
58979;BME280;44763;50.464;30.612;2022-09-13T14:30:57;99542.72;;;11.58;100.00
58979;BME280;44763;50.464;30.612;2022-09-13T14:33:35;99538.64;;;11.55;100.00
58979;BME280;44763;50.464;30.612;2022-09-13T14:36:19;99542.85;;;11.54;100.00
58979;BME280;44763;50.464;30.612;2022-09-13T14:38:55;99540.59;;;11.50;100.00
58979;BME280;44763;50.464;30.612;2022-09-13T14:41:20;99541.33;;;11.48;100.00
58979;BME280;44763;50.464;30.612;2022-09-13T14:43:48;99544.20;;;11.47;100.00
58979;BME280;44763;50.464;30.612;2022-09-13T14:46:24;99544.00;;;11.48;100.00
58979;BME280;44763;50.464;30.612;2022-09-13T14:48:59;99540.70;;;11.53;100.00
58979;BME280;44763;50.464;30.612;2022-09-13T14:54:18;99550.05;;;11.53;100.00
58979;BME280;44763;50.464;30.612;2022-09-13T14:57:05;99542.25;;;11.52;100.00
58979;BME280;44763;50.464;30.612;2022-09-13T14:59:42;99539.27;;;11.50;100.00
58979;BME280;44763;50.464;30.612;2022-09-13T15:02:25;99545.73;;;11.52;100.00
58979;BME280;44763;50.464;30.612;2022-09-13T15:04:57;99551.98;;;11.55;100.00
58979;BME280;44763;50.464;30.612;2022-09-13T15:07:30;99547.98;;;11.55;100.00
58979;BME280;44763;50.464;30.612;2022-09-13T15:12:51;99550.91;;;11.63;100.00
58979;BME280;44763;50.464;30.612;2022-09-13T15:15:39;99554.91;;;11.63;100.00
58979;BME280;44763;50.464;30.612;2022-09-13T15:21:04;99551.72;;;11.63;100.00
58979;BME280;44763;50.464;30.612;2022-09-13T15:23:33;99555.94;;;11.62;100.00
58979;BME280;44763;50.464;30.612;2022-09-13T15:26:10;99555.05;;;11.59;100.00
58979;BME280;44763;50.464;30.612;2022-09-13T15:31:28;99556.52;;;11.55;100.00
58979;BME280;44763;50.464;30.612;2022-09-13T15:34:21;99560.80;;;11.56;100.00
58979;BME280;44763;50.464;30.612;2022-09-13T15:42:13;99565.89;;;11.41;100.00
58979;BME280;44763;50.464;30.612;2022-09-13T15:44:39;99569.42;;;11.35;100.00
58979;BME280;44763;50.464;30.612;2022-09-13T15:47:15;99567.27;;;11.35;100.00
58979;BME280;44763;50.464;30.612;2022-09-13T15:49:47;99563.60;;;11.29;100.00
58979;BME280;44763;50.464;30.612;2022-09-13T15:52:16;99566.19;;;11.26;100.00
58979;BME280;44763;50.464;30.612;2022-09-13T15:54:46;99556.22;;;11.24;100.00
58979;BME280;44763;50.464;30.612;2022-09-13T15:57:21;99560.75;;;11.24;100.00
58979;BME280;44763;50.464;30.612;2022-09-13T15:59:50;99565.34;;;11.26;100.00
58979;BME280;44763;50.464;30.612;2022-09-13T16:02:25;99564.13;;;11.28;100.00
58979;BME280;44763;50.464;30.612;2022-09-13T16:04:54;99563.60;;;11.29;100.00
58979;BME280;44763;50.464;30.612;2022-09-13T16:07:21;99564.73;;;11.30;100.00
58979;BME280;44763;50.464;30.612;2022-09-13T16:09:50;99560.52;;;11.32;100.00
58979;BME280;44763;50.464;30.612;2022-09-13T16:12:18;99563.19;;;11.32;100.00
58979;BME280;44763;50.464;30.612;2022-09-13T16:14:46;99557.75;;;11.29;100.00
58979;BME280;44763;50.464;30.612;2022-09-13T16:17:21;99555.60;;;11.29;100.00
58979;BME280;44763;50.464;30.612;2022-09-13T16:19:50;99557.54;;;11.31;100.00